Time;durP1;ratioP1;P1;durP2;ratioP2;P2;SDS_P1;SDS_P2;PMS_P1;PMS_P2;Temp;Humidity;BMP_temperature;BMP_pressure;BME280_temperature;BME280_humidity;BME280_pressure;Samples;Min_cycle;Max_cycle;Signal;HPM_P1;HPM_P2
2023/02/05 00:00:48;;;;;;;;;;;;;;;19.68;40.22;103725.25;7253220;19;156043;-77
2023/02/05 00:09:44;;;;;;;;;;;;;;;19.64;40.73;103721.22;7240345;19;154129;-77
2023/02/05 00:12:11;;;;;;;;;;;;;;;19.63;40.61;103725.09;7257113;19;153732;-77
2023/02/05 00:14:38;;;;;;;;;;;;;;;19.60;40.42;103729.25;7259217;19;152379;-78
2023/02/05 00:17:05;;;;;;;;;;;;;;;19.59;40.71;103732.25;7257708;19;155557;-76
2023/02/05 00:19:32;;;;;;;;;;;;;;;19.57;40.77;103732.53;7263768;19;155074;-78
2023/02/05 00:21:59;;;;;;;;;;;;;;;19.58;40.73;103739.00;7258926;19;153798;-78
2023/02/05 00:24:26;;;;;;;;;;;;;;;19.54;40.83;103747.84;7258191;19;153295;-80
2023/02/05 00:26:53;;;;;;;;;;;;;;;19.55;40.57;103729.09;7258161;19;153166;-79
2023/02/05 00:29:20;;;;;;;;;;;;;;;19.57;40.59;103726.91;7255094;19;155309;-77
2023/02/05 00:31:48;;;;;;;;;;;;;;;19.58;40.82;103734.22;7257786;19;154005;-77
2023/02/05 00:34:16;;;;;;;;;;;;;;;19.53;41.06;103723.69;7256668;19;153738;-76
2023/02/05 00:36:44;;;;;;;;;;;;;;;19.52;41.16;103723.94;7252457;19;154092;-76
2023/02/05 00:39:13;;;;;;;;;;;;;;;19.51;41.25;103727.84;7252790;19;152415;-77
2023/02/05 00:41:40;;;;;;;;;;;;;;;19.50;41.60;103712.97;7263152;19;153913;-78
2023/02/05 00:44:07;;;;;;;;;;;;;;;19.57;41.77;103721.31;7257194;19;154202;-78
2023/02/05 00:46:34;;;;;;;;;;;;;;;19.50;41.67;103720.50;7258623;19;155960;-78
2023/02/05 00:49:01;;;;;;;;;;;;;;;19.47;41.97;103721.84;7256469;19;155997;-78
2023/02/05 00:51:29;;;;;;;;;;;;;;;19.49;42.04;103733.66;7255426;19;153284;-77
2023/02/05 00:53:56;;;;;;;;;;;;;;;19.52;42.00;103732.38;7255211;19;154369;-79
2023/02/05 00:56:23;;;;;;;;;;;;;;;19.49;41.82;103738.41;7258771;19;154644;-78
2023/02/05 00:58:50;;;;;;;;;;;;;;;19.46;41.93;103724.88;7260624;19;153285;-78
2023/02/05 01:01:18;;;;;;;;;;;;;;;19.49;42.19;103732.81;7258790;19;154178;-78
2023/02/05 01:03:44;;;;;;;;;;;;;;;19.47;41.99;103737.81;7265178;19;154558;-78
2023/02/05 01:06:12;;;;;;;;;;;;;;;19.48;42.00;103733.94;7256882;19;154194;-78
2023/02/05 01:08:39;;;;;;;;;;;;;;;19.46;42.30;103722.94;7255559;19;154053;-78
2023/02/05 01:11:09;;;;;;;;;;;;;;;19.46;42.37;103725.75;7254772;19;153277;-78
2023/02/05 01:13:36;;;;;;;;;;;;;;;19.46;42.03;103719.28;7256993;19;153922;-78
2023/02/05 01:16:04;;;;;;;;;;;;;;;19.46;42.07;103719.28;7260217;19;153426;-79
2023/02/05 01:18:31;;;;;;;;;;;;;;;19.44;42.33;103719.50;7258910;19;155423;-78
2023/02/05 01:20:58;;;;;;;;;;;;;;;19.43;42.38;103726.22;7264979;19;153700;-79
2023/02/05 01:23:28;;;;;;;;;;;;;;;19.45;42.07;103720.34;7266450;19;154281;-79
2023/02/05 01:25:55;;;;;;;;;;;;;;;19.45;42.60;103723.16;7272514;19;153264;-78
2023/02/05 01:28:23;;;;;;;;;;;;;;;19.45;42.27;103732.44;7262890;19;153927;-78
2023/02/05 01:30:50;;;;;;;;;;;;;;;19.41;42.68;103733.97;7265318;19;153825;-78
2023/02/05 01:33:18;;;;;;;;;;;;;;;19.43;42.31;103743.03;7264300;19;155354;-78
2023/02/05 01:35:45;;;;;;;;;;;;;;;19.42;42.41;103734.81;7260403;19;153222;-78
2023/02/05 01:38:12;;;;;;;;;;;;;;;19.39;42.46;103741.75;7264203;19;153547;-78
2023/02/05 01:40:40;;;;;;;;;;;;;;;19.38;42.53;103736.38;7263010;19;154578;-78
2023/02/05 01:43:10;;;;;;;;;;;;;;;19.37;42.90;103731.84;7263280;19;154318;-78
2023/02/05 01:45:41;;;;;;;;;;;;;;;19.37;42.58;103748.66;7272831;19;153094;-78
2023/02/05 01:48:09;;;;;;;;;;;;;;;19.35;42.64;103750.88;7262940;19;156121;-80
2023/02/05 01:50:40;;;;;;;;;;;;;;;19.35;42.77;103739.66;7261775;19;153447;-78
2023/02/05 01:53:10;;;;;;;;;;;;;;;19.31;43.02;103738.38;7260183;19;154136;-78
2023/02/05 01:55:39;;;;;;;;;;;;;;;19.34;43.07;103746.34;7258579;19;153440;-78
2023/02/05 01:58:07;;;;;;;;;;;;;;;19.33;42.99;103756.69;7263481;19;154092;-77
2023/02/05 02:00:34;;;;;;;;;;;;;;;19.30;43.07;103754.38;7261109;19;153357;-77
2023/02/05 02:03:02;;;;;;;;;;;;;;;19.32;43.02;103759.72;7257711;19;154300;-77
2023/02/05 02:05:29;;;;;;;;;;;;;;;19.31;43.35;103769.22;7260164;19;154435;-78
2023/02/05 02:07:57;;;;;;;;;;;;;;;19.29;43.36;103771.41;7263627;19;154028;-78
2023/02/05 02:10:24;;;;;;;;;;;;;;;19.28;43.13;103778.09;7259312;19;154154;-77
2023/02/05 02:12:53;;;;;;;;;;;;;;;19.28;43.45;103778.09;7260547;19;154525;-77
2023/02/05 02:15:22;;;;;;;;;;;;;;;19.25;43.23;103782.22;7259707;19;154470;-77
2023/02/05 02:17:52;;;;;;;;;;;;;;;19.27;43.47;103782.84;7261723;19;153229;-79
2023/02/05 02:20:21;;;;;;;;;;;;;;;19.23;43.31;103790.00;7263107;19;155505;-78
2023/02/05 02:22:51;;;;;;;;;;;;;;;19.23;43.60;103794.75;7261489;19;154386;-78
2023/02/05 02:25:20;;;;;;;;;;;;;;;19.21;43.57;103789.38;7265768;19;154237;-78
2023/02/05 02:27:49;;;;;;;;;;;;;;;19.20;43.64;103796.06;7260258;19;153238;-78
2023/02/05 02:30:19;;;;;;;;;;;;;;;19.22;43.60;103812.63;7267906;19;153834;-78
2023/02/05 02:32:46;;;;;;;;;;;;;;;19.19;43.72;103808.38;7263904;19;153664;-77
2023/02/05 02:35:16;;;;;;;;;;;;;;;19.19;43.53;103804.69;7263099;19;153391;-77
2023/02/05 02:37:52;;;;;;;;;;;;;;;19.19;43.69;103804.69;7262734;19;154186;-77
2023/02/05 02:40:22;;;;;;;;;;;;;;;19.17;43.77;103804.09;7261495;19;152765;-78
2023/02/05 02:42:52;;;;;;;;;;;;;;;19.14;43.48;103796.97;7261161;19;153878;-78
2023/02/05 02:45:21;;;;;;;;;;;;;;;19.18;43.71;103795.44;7262279;19;155271;-78
2023/02/05 02:47:52;;;;;;;;;;;;;;;19.15;43.45;103797.84;7261303;19;155003;-78
2023/02/05 02:50:23;;;;;;;;;;;;;;;19.14;43.68;103796.13;7259270;19;153550;-78
2023/02/05 02:52:51;;;;;;;;;;;;;;;19.15;43.84;103809.06;7268498;19;153773;-79
2023/02/05 02:55:19;;;;;;;;;;;;;;;19.14;43.84;103799.78;7256633;19;154812;-78
2023/02/05 02:57:48;;;;;;;;;;;;;;;19.10;43.74;103799.41;7260987;19;153727;-77
2023/02/05 03:00:18;;;;;;;;;;;;;;;19.13;43.67;103798.06;7259151;19;154482;-77
2023/02/05 03:02:47;;;;;;;;;;;;;;;19.09;44.10;103808.03;7258732;19;153745;-77
2023/02/05 03:05:16;;;;;;;;;;;;;;;19.09;43.88;103803.28;7256630;19;152966;-77
2023/02/05 03:07:47;;;;;;;;;;;;;;;19.06;43.79;103809.34;7255033;19;154849;-78
2023/02/05 03:10:15;;;;;;;;;;;;;;;19.06;44.01;103825.31;7253002;19;154384;-77
2023/02/05 03:12:43;;;;;;;;;;;;;;;19.07;44.02;103836.28;7259144;19;153751;-78
2023/02/05 03:15:11;;;;;;;;;;;;;;;19.04;43.90;103859.16;7262680;19;152996;-77
2023/02/05 03:17:38;;;;;;;;;;;;;;;19.04;44.14;103870.34;7256118;19;153628;-78
2023/02/05 03:20:08;;;;;;;;;;;;;;;19.04;44.21;103863.88;7255450;19;154236;-77
2023/02/05 03:22:35;;;;;;;;;;;;;;;19.02;43.89;103868.88;7257206;19;156033;-77
2023/02/05 03:25:02;;;;;;;;;;;;;;;19.01;44.03;103884.84;7261218;19;154287;-78
2023/02/05 03:27:29;;;;;;;;;;;;;;;19.02;44.27;103905.31;7257962;19;152811;-77
2023/02/05 03:29:56;;;;;;;;;;;;;;;18.99;44.04;103909.41;7256384;19;154461;-77
2023/02/05 03:32:26;;;;;;;;;;;;;;;18.97;44.37;103917.19;7257811;19;153235;-77
2023/02/05 03:35:03;;;;;;;;;;;;;;;18.99;43.93;103920.63;7259115;19;155903;-77
2023/02/05 03:37:33;;;;;;;;;;;;;;;18.97;43.95;103931.19;7266658;19;155853;-78
2023/02/05 03:40:01;;;;;;;;;;;;;;;18.96;44.15;103923.00;7258842;19;154697;-78
2023/02/05 03:42:33;;;;;;;;;;;;;;;18.93;44.12;103915.06;7255326;19;153952;-78
2023/02/05 03:45:03;;;;;;;;;;;;;;;18.97;44.25;103933.13;7258360;19;153509;-77
2023/02/05 03:47:31;;;;;;;;;;;;;;;18.97;44.08;103941.53;7256616;19;153049;-77
2023/02/05 03:50:01;;;;;;;;;;;;;;;18.94;44.23;103954.03;7256852;19;154187;-77
2023/02/05 03:52:32;;;;;;;;;;;;;;;18.96;44.13;103965.91;7260590;19;153673;-77
2023/02/05 03:55:02;;;;;;;;;;;;;;;18.97;44.20;103964.81;7259541;19;153023;-78
2023/02/05 03:57:34;;;;;;;;;;;;;;;18.95;44.58;103964.19;7272324;19;154628;-78
2023/02/05 04:00:03;;;;;;;;;;;;;;;18.93;44.54;103966.38;7259952;19;153343;-78
2023/02/05 04:02:30;;;;;;;;;;;;;;;18.93;44.27;103979.50;7260424;19;153858;-78
2023/02/05 04:04:57;;;;;;;;;;;;;;;18.93;44.48;103985.97;7260579;19;155558;-78
2023/02/05 04:07:24;;;;;;;;;;;;;;;18.90;44.20;103975.19;7263535;19;153514;-77
2023/02/05 04:09:51;;;;;;;;;;;;;;;18.89;44.20;103984.72;7258940;19;154718;-78
2023/02/05 04:12:18;;;;;;;;;;;;;;;18.89;44.35;103984.72;7258641;19;153621;-78
2023/02/05 04:14:45;;;;;;;;;;;;;;;18.91;43.97;103985.31;7258150;19;154523;-79
2023/02/05 04:17:12;;;;;;;;;;;;;;;18.90;44.46;103994.81;7260957;19;153929;-78
2023/02/05 04:19:40;;;;;;;;;;;;;;;18.89;44.06;103997.84;7264382;19;153130;-80
2023/02/05 04:22:07;;;;;;;;;;;;;;;18.88;44.23;103994.19;7258255;19;154297;-77
2023/02/05 04:24:34;;;;;;;;;;;;;;;18.89;44.32;104003.44;7261197;19;154936;-78
2023/02/05 04:27:01;;;;;;;;;;;;;;;18.86;43.91;104001.06;7261226;19;155871;-80
2023/02/05 04:29:28;;;;;;;;;;;;;;;18.87;43.94;104016.81;7259271;19;154928;-77
2023/02/05 04:31:55;;;;;;;;;;;;;;;18.88;43.76;104025.00;7256305;19;153962;-77
2023/02/05 04:34:23;;;;;;;;;;;;;;;18.86;44.29;104024.34;7257638;19;153727;-77
2023/02/05 04:36:51;;;;;;;;;;;;;;;18.85;44.02;104025.44;7251982;19;154066;-77
2023/02/05 04:39:18;;;;;;;;;;;;;;;18.83;44.03;104035.16;7257037;19;153946;-77
2023/02/05 04:41:45;;;;;;;;;;;;;;;18.82;43.82;104039.88;7260641;19;153483;-77
2023/02/05 04:44:12;;;;;;;;;;;;;;;18.82;43.98;104041.81;7256248;19;154938;-78
2023/02/05 04:46:39;;;;;;;;;;;;;;;18.83;44.09;104057.56;7254539;19;152756;-78
2023/02/05 04:49:06;;;;;;;;;;;;;;;18.82;43.95;104053.03;7254713;19;154679;-78
2023/02/05 04:51:33;;;;;;;;;;;;;;;18.82;43.64;104070.69;7257205;19;153685;-77
2023/02/05 04:54:00;;;;;;;;;;;;;;;18.77;44.01;104072.44;7255939;19;154885;-77
2023/02/05 04:56:26;;;;;;;;;;;;;;;18.81;43.71;104071.78;7262216;19;155563;-78
2023/02/05 04:58:53;;;;;;;;;;;;;;;18.79;43.93;104076.75;7265708;19;155181;-77
2023/02/05 05:01:21;;;;;;;;;;;;;;;18.76;43.66;104079.97;7261722;19;153213;-78
2023/02/05 05:03:49;;;;;;;;;;;;;;;18.77;43.98;104066.84;7269240;19;154196;-78
2023/02/05 05:06:17;;;;;;;;;;;;;;;18.78;43.65;104074.16;7261119;19;153972;-77
2023/02/05 05:08:44;;;;;;;;;;;;;;;18.73;43.80;104097.22;7261703;19;154274;-78
2023/02/05 05:11:12;;;;;;;;;;;;;;;18.73;43.41;104100.03;7264687;19;154706;-78
2023/02/05 05:13:39;;;;;;;;;;;;;;;18.71;43.75;104092.94;7263663;19;154339;-78
2023/02/05 05:16:08;;;;;;;;;;;;;;;18.72;43.63;104089.91;7263077;19;154090;-78
2023/02/05 05:18:35;;;;;;;;;;;;;;;18.70;43.85;104094.88;7265040;19;153238;-77
2023/02/05 05:21:03;;;;;;;;;;;;;;;18.71;43.81;104079.81;7260855;19;153857;-77
2023/02/05 05:23:31;;;;;;;;;;;;;;;18.70;44.02;104094.88;7259188;19;154533;-78
2023/02/05 05:25:57;;;;;;;;;;;;;;;18.70;43.68;104102.41;7269406;19;152507;-77
2023/02/05 05:28:24;;;;;;;;;;;;;;;18.67;43.51;104098.97;7258206;19;153522;-78
2023/02/05 05:30:51;;;;;;;;;;;;;;;18.65;43.96;104105.88;7263752;19;153689;-78
2023/02/05 05:33:18;;;;;;;;;;;;;;;18.68;43.72;104097.03;7264010;19;153626;-77
2023/02/05 05:35:45;;;;;;;;;;;;;;;18.64;43.74;104098.53;7264250;19;153845;-77
2023/02/05 05:38:12;;;;;;;;;;;;;;;18.64;43.56;104093.81;7263047;19;153780;-78
2023/02/05 05:45:42;;;;;;;;;;;;;;;18.60;43.89;104106.53;7260203;19;154231;-77
2023/02/05 05:48:09;;;;;;;;;;;;;;;18.59;43.69;104107.59;7266704;19;153634;-77
2023/02/05 05:50:36;;;;;;;;;;;;;;;18.55;43.88;104117.53;7262426;19;153077;-77
2023/02/05 05:53:02;;;;;;;;;;;;;;;18.59;43.71;104126.34;7261514;19;152819;-78
2023/02/05 05:55:29;;;;;;;;;;;;;;;18.59;43.67;104137.53;7258079;19;154189;-77
2023/02/05 05:57:57;;;;;;;;;;;;;;;18.57;43.56;104139.72;7258084;19;154456;-78
2023/02/05 06:00:23;;;;;;;;;;;;;;;18.56;43.68;104138.84;7259930;19;155299;-77
2023/02/05 06:02:50;;;;;;;;;;;;;;;18.55;43.72;104142.72;7258267;19;154272;-77
2023/02/05 06:05:17;;;;;;;;;;;;;;;18.53;43.51;104158.03;7259627;19;153442;-78
2023/02/05 06:07:44;;;;;;;;;;;;;;;18.54;43.75;104169.00;7266600;19;153739;-78
2023/02/05 06:10:12;;;;;;;;;;;;;;;18.56;43.56;104172.47;7256405;19;152551;-77
2023/02/05 06:12:39;;;;;;;;;;;;;;;18.55;43.79;104172.66;7259522;19;155265;-78
2023/02/05 06:15:07;;;;;;;;;;;;;;;18.54;43.46;104170.94;7258785;19;153960;-78
2023/02/05 06:17:34;;;;;;;;;;;;;;;18.52;43.64;104173.06;7259322;19;155439;-77
2023/02/05 06:20:02;;;;;;;;;;;;;;;18.51;43.51;104180.59;7258817;19;154767;-77
2023/02/05 06:22:29;;;;;;;;;;;;;;;18.49;43.81;104181.88;7259255;19;154955;-77
2023/02/05 06:24:56;;;;;;;;;;;;;;;18.45;43.43;104178.66;7262445;19;153886;-78
2023/02/05 06:27:23;;;;;;;;;;;;;;;18.46;43.49;104180.38;7261614;19;153364;-77
2023/02/05 06:29:50;;;;;;;;;;;;;;;18.46;43.78;104182.31;7262255;19;154566;-78
2023/02/05 06:32:17;;;;;;;;;;;;;;;18.43;43.66;104182.75;7258075;19;153679;-77
2023/02/05 06:34:44;;;;;;;;;;;;;;;18.46;43.81;104187.91;7255420;19;154041;-77
2023/02/05 06:37:10;;;;;;;;;;;;;;;18.45;43.60;104191.78;7259500;19;152410;-77
2023/02/05 06:39:37;;;;;;;;;;;;;;;18.46;43.40;104182.31;7262282;19;155416;-78
2023/02/05 06:42:05;;;;;;;;;;;;;;;18.45;43.47;104197.41;7261666;19;157389;-77
2023/02/05 06:44:32;;;;;;;;;;;;;;;18.43;43.54;104191.16;7259469;19;153780;-77
2023/02/05 06:47:00;;;;;;;;;;;;;;;18.42;43.60;104201.50;7258990;19;153572;-78
2023/02/05 06:49:26;;;;;;;;;;;;;;;18.41;43.78;104207.31;7256967;19;154425;-77
2023/02/05 06:51:53;;;;;;;;;;;;;;;18.43;43.52;104221.97;7267063;19;153535;-78
2023/02/05 06:54:20;;;;;;;;;;;;;;;18.42;43.27;104226.69;7259063;19;154719;-78
2023/02/05 06:56:47;;;;;;;;;;;;;;;18.41;43.81;104240.91;7256109;19;152387;-77
2023/02/05 06:59:14;;;;;;;;;;;;;;;18.43;44.12;104238.75;7260993;19;156363;-77
2023/02/05 07:01:41;;;;;;;;;;;;;;;18.44;44.12;104237.69;7259705;19;153404;-77
2023/02/05 07:04:08;;;;;;;;;;;;;;;18.52;43.98;104237.47;7262643;19;154146;-77
2023/02/05 07:06:35;;;;;;;;;;;;;;;18.56;44.05;104227.59;7262948;19;152952;-78
2023/02/05 07:09:02;;;;;;;;;;;;;;;18.61;44.28;104247.41;7258295;19;153866;-78
2023/02/05 07:11:29;;;;;;;;;;;;;;;18.67;44.02;104238.13;7257288;19;153313;-78
2023/02/05 07:13:55;;;;;;;;;;;;;;;18.70;44.01;104246.13;7264542;19;153581;-77
2023/02/05 07:16:22;;;;;;;;;;;;;;;18.76;44.23;104247.22;7257581;19;154867;-77
2023/02/05 07:18:51;;;;;;;;;;;;;;;18.81;44.35;104253.00;7261473;19;153431;-77
2023/02/05 07:21:19;;;;;;;;;;;;;;;18.87;44.38;104246.53;7258461;19;157744;-77
2023/02/05 07:23:46;;;;;;;;;;;;;;;18.92;44.59;104250.41;7257914;19;154401;-77
2023/02/05 07:26:15;;;;;;;;;;;;;;;18.98;44.38;104266.38;7258296;19;153198;-78
2023/02/05 07:28:43;;;;;;;;;;;;;;;19.05;44.29;104264.41;7255954;19;155204;-78
2023/02/05 07:31:14;;;;;;;;;;;;;;;19.09;44.55;104270.44;7260683;19;153019;-77
2023/02/05 07:33:43;;;;;;;;;;;;;;;19.16;44.29;104251.69;7261318;19;153391;-77
2023/02/05 07:36:11;;;;;;;;;;;;;;;19.21;44.31;104254.69;7265719;19;155245;-79
2023/02/05 07:38:38;;;;;;;;;;;;;;;19.27;43.72;104266.94;7258358;19;155740;-77
2023/02/05 07:41:06;;;;;;;;;;;;;;;19.34;43.79;104277.09;7258354;19;156099;-78
2023/02/05 07:43:34;;;;;;;;;;;;;;;19.39;43.94;104282.91;7257073;19;153566;-77
2023/02/05 07:46:03;;;;;;;;;;;;;;;19.45;43.66;104286.78;7255082;19;153729;-78
2023/02/05 07:48:30;;;;;;;;;;;;;;;19.50;43.53;104282.25;7255966;19;156553;-77
2023/02/05 07:50:57;;;;;;;;;;;;;;;19.56;43.45;104285.25;7255950;19;153742;-78
2023/02/05 07:53:24;;;;;;;;;;;;;;;19.61;43.35;104289.13;7256458;19;154630;-78
2023/02/05 07:55:51;;;;;;;;;;;;;;;19.68;43.48;104287.16;7255902;19;154446;-78
2023/02/05 07:58:18;;;;;;;;;;;;;;;19.74;42.69;104293.81;7264842;19;153728;-77
2023/02/05 08:00:45;;;;;;;;;;;;;;;19.79;42.72;104294.03;7255112;19;153388;-78
2023/02/05 08:03:12;;;;;;;;;;;;;;;19.85;42.76;104293.97;7258370;19;153422;-77
2023/02/05 08:05:39;;;;;;;;;;;;;;;19.91;42.78;104295.91;7256859;19;155329;-77
2023/02/05 08:08:06;;;;;;;;;;;;;;;19.95;42.50;104287.91;7255629;19;154206;-77
2023/02/05 08:10:33;;;;;;;;;;;;;;;20.02;42.70;104301.91;7252741;19;153315;-78
2023/02/05 08:13:00;;;;;;;;;;;;;;;20.07;42.26;104316.16;7256357;19;154252;-77
2023/02/05 08:15:27;;;;;;;;;;;;;;;20.11;41.83;104320.22;7255266;19;154251;-76
2023/02/05 08:17:55;;;;;;;;;;;;;;;20.14;41.72;104317.81;7265937;19;153212;-78
2023/02/05 08:20:22;;;;;;;;;;;;;;;20.18;42.01;104310.66;7254156;19;155176;-77
2023/02/05 08:22:49;;;;;;;;;;;;;;;20.22;41.47;104325.13;7255453;19;153116;-78
2023/02/05 08:25:16;;;;;;;;;;;;;;;20.24;41.77;104325.75;7256820;19;154508;-78
2023/02/05 08:27:44;;;;;;;;;;;;;;;20.29;41.32;104342.81;7257163;19;153160;-78
2023/02/05 08:30:14;;;;;;;;;;;;;;;20.31;41.42;104346.25;7262863;19;153549;-78
2023/02/05 08:32:41;;;;;;;;;;;;;;;20.33;41.19;104344.97;7263805;19;152490;-78
2023/02/05 08:35:08;;;;;;;;;;;;;;;20.36;41.47;104332.41;7265125;19;155413;-80
2023/02/05 08:37:35;;;;;;;;;;;;;;;20.37;41.24;104332.19;7264729;19;153313;-78
2023/02/05 08:40:02;;;;;;;;;;;;;;;20.41;40.94;104338.22;7268402;19;153442;-77
2023/02/05 08:42:29;;;;;;;;;;;;;;;20.42;41.06;104332.38;7263438;19;154029;-77
2023/02/05 08:44:58;;;;;;;;;;;;;;;20.44;41.05;104336.94;7264601;19;153438;-76
2023/02/05 08:47:26;;;;;;;;;;;;;;;20.47;41.11;104342.94;7263217;19;154993;-77
2023/02/05 08:49:53;;;;;;;;;;;;;;;20.47;40.84;104345.75;7260289;19;154075;-77
2023/02/05 08:52:20;;;;;;;;;;;;;;;20.47;41.01;104351.38;7260354;19;154648;-77
2023/02/05 08:54:47;;;;;;;;;;;;;;;20.50;40.61;104348.09;7262544;19;154194;-77
2023/02/05 08:57:15;;;;;;;;;;;;;;;20.50;41.27;104356.53;7260338;19;152789;-77
2023/02/05 08:59:42;;;;;;;;;;;;;;;20.50;40.85;104350.06;7260065;19;153370;-76
2023/02/05 09:02:12;;;;;;;;;;;;;;;20.51;40.69;104361.06;7267326;19;155355;-77
2023/02/05 09:04:40;;;;;;;;;;;;;;;20.51;41.08;104354.59;7260886;19;154879;-78
2023/02/05 09:07:07;;;;;;;;;;;;;;;20.51;40.85;104352.66;7260820;19;154538;-77
2023/02/05 09:09:35;;;;;;;;;;;;;;;20.50;41.04;104364.97;7265724;19;152897;-77
2023/02/05 09:12:03;;;;;;;;;;;;;;;20.51;41.16;104355.44;7259289;19;154868;-76
2023/02/05 09:14:35;;;;;;;;;;;;;;;20.50;40.72;104355.66;7260529;19;155085;-77
2023/02/05 09:17:02;;;;;;;;;;;;;;;20.49;41.18;104348.34;7263751;19;153607;-76
2023/02/05 09:19:32;;;;;;;;;;;;;;;20.45;41.25;104338.63;7262757;19;153092;-77
2023/02/05 09:21:59;;;;;;;;;;;;;;;20.46;40.80;104358.06;7261668;19;154780;-77
2023/02/05 09:24:26;;;;;;;;;;;;;;;20.44;41.23;104373.44;7274252;19;152600;-77
2023/02/05 09:26:54;;;;;;;;;;;;;;;20.41;41.34;104369.97;7262737;19;153954;-77
2023/02/05 09:29:20;;;;;;;;;;;;;;;20.38;41.28;104364.81;7261322;19;154016;-77
2023/02/05 09:31:48;;;;;;;;;;;;;;;20.38;41.20;104359.22;7264386;19;153174;-77
2023/02/05 09:34:15;;;;;;;;;;;;;;;20.36;41.32;104358.56;7259521;19;155001;-76
2023/02/05 09:36:42;;;;;;;;;;;;;;;20.36;41.43;104354.88;7263180;19;154661;-79
2023/02/05 09:39:09;;;;;;;;;;;;;;;20.34;41.60;104352.31;7259906;19;155407;-79
2023/02/05 09:41:59;;;;;;;;;;;;;;;20.31;41.29;104365.91;7258823;19;153887;-79
2023/02/05 09:44:29;;;;;;;;;;;;;;;20.33;41.64;104369.38;7261711;19;152947;-79
2023/02/05 09:47:04;;;;;;;;;;;;;;;20.26;41.76;104360.13;7269602;19;154657;-79
2023/02/05 09:49:37;;;;;;;;;;;;;;;20.23;41.95;104368.97;7260315;19;154113;-79
2023/02/05 09:52:07;;;;;;;;;;;;;;;20.23;41.66;104372.63;7259893;19;155332;-78
2023/02/05 09:54:37;;;;;;;;;;;;;;;20.23;41.98;104371.78;7261263;19;153846;-79
2023/02/05 09:57:07;;;;;;;;;;;;;;;20.19;41.87;104362.06;7262116;19;153361;-79
2023/02/05 09:59:34;;;;;;;;;;;;;;;20.18;41.80;104366.81;7262682;19;153502;-78
2023/02/05 10:02:02;;;;;;;;;;;;;;;20.15;41.87;104369.22;7260404;19;154011;-79
2023/02/05 10:04:31;;;;;;;;;;;;;;;20.16;42.13;104370.94;7264517;19;152913;-78
2023/02/05 10:07:01;;;;;;;;;;;;;;;20.14;42.21;104368.34;7260279;19;154815;-79
2023/02/05 10:09:31;;;;;;;;;;;;;;;20.11;42.23;104371.63;7267971;19;153215;-78
2023/02/05 10:12:01;;;;;;;;;;;;;;;20.11;41.81;104367.94;7255200;19;154944;-77
2023/02/05 10:14:31;;;;;;;;;;;;;;;20.11;42.01;104373.56;7258394;19;153574;-78
2023/02/05 10:16:59;;;;;;;;;;;;;;;20.10;42.15;104374.63;7264189;19;153487;-78
2023/02/05 10:19:33;;;;;;;;;;;;;;;20.10;42.09;104366.22;7267947;19;152918;-78
2023/02/05 10:22:10;;;;;;;;;;;;;;;20.08;41.88;104354.38;7261366;19;155593;-78
2023/02/05 10:24:38;;;;;;;;;;;;;;;20.08;42.14;104343.97;7261493;19;152774;-78
2023/02/05 10:27:08;;;;;;;;;;;;;;;20.05;41.84;104344.41;7263691;19;153131;-78
2023/02/05 10:29:35;;;;;;;;;;;;;;;20.04;42.25;104356.72;7268314;19;154927;-79
2023/02/05 10:32:05;;;;;;;;;;;;;;;20.07;41.99;104358.25;7263491;19;153815;-78
2023/02/05 10:34:35;;;;;;;;;;;;;;;19.99;42.10;104360.19;7255170;19;154040;-79
2023/02/05 10:37:04;;;;;;;;;;;;;;;20.05;41.95;104346.38;7260190;19;154113;-79
2023/02/05 10:39:34;;;;;;;;;;;;;;;19.98;40.98;104346.41;7260260;19;153679;-76
2023/02/05 10:42:04;;;;;;;;;;;;;;;19.95;40.73;104342.09;7258975;19;154044;-79
2023/02/05 10:44:34;;;;;;;;;;;;;;;19.95;40.66;104328.06;7257619;19;153258;-79
2023/02/05 10:47:05;;;;;;;;;;;;;;;19.93;40.37;104327.44;7259183;19;153594;-79
2023/02/05 10:49:35;;;;;;;;;;;;;;;20.03;40.03;104334.53;7259772;19;153577;-79
2023/02/05 10:52:02;;;;;;;;;;;;;;;20.07;39.91;104321.75;7263243;19;152612;-79
2023/02/05 10:54:30;;;;;;;;;;;;;;;20.10;39.67;104326.91;7257628;19;153918;-80
2023/02/05 10:56:58;;;;;;;;;;;;;;;20.14;39.54;104326.25;7260120;19;154354;-80
2023/02/05 10:59:28;;;;;;;;;;;;;;;20.17;39.26;104339.81;7242270;19;156233;-80
2023/02/05 11:01:56;;;;;;;;;;;;;;;20.22;39.28;104327.91;7242501;19;156849;-79
2023/02/05 11:04:32;;;;;;;;;;;;;;;20.24;39.13;104322.97;7257378;19;154288;-79
2023/02/05 11:07:00;;;;;;;;;;;;;;;20.26;39.14;104318.00;7256126;19;153970;-79
2023/02/05 11:09:29;;;;;;;;;;;;;;;20.29;39.47;104307.16;7254551;19;154063;-79
2023/02/05 11:12:15;;;;;;;;;;;;;;;20.33;39.25;104318.84;7287251;19;153430;-57
2023/02/05 11:14:44;;;;;;;;;;;;;;;20.35;39.14;104339.97;7282498;19;154414;-57
2023/02/05 11:17:14;;;;;;;;;;;;;;;20.39;39.18;104348.84;7284120;19;153064;-57
2023/02/05 11:19:51;;;;;;;;;;;;;;;20.43;38.91;104341.69;7286741;19;153282;-57
2023/02/05 11:22:21;;;;;;;;;;;;;;;20.45;38.92;104330.19;7285026;19;153435;-57
2023/02/05 11:24:48;;;;;;;;;;;;;;;20.50;38.68;104341.63;7286690;19;153853;-57
2023/02/05 11:27:15;;;;;;;;;;;;;;;20.53;38.90;104335.56;7284636;19;154912;-57
2023/02/05 11:29:42;;;;;;;;;;;;;;;20.56;39.13;104335.97;7282987;19;155002;-57
2023/02/05 11:32:12;;;;;;;;;;;;;;;20.60;38.86;104327.94;7292293;19;154625;-57
2023/02/05 11:34:39;;;;;;;;;;;;;;;20.65;38.94;104328.13;7284617;19;154164;-57
2023/02/05 11:37:15;;;;;;;;;;;;;;;20.70;38.79;104320.75;7283565;19;154779;-56
2023/02/05 11:39:44;;;;;;;;;;;;;;;20.76;38.73;104339.50;7287245;19;153263;-57
2023/02/05 11:42:14;;;;;;;;;;;;;;;20.82;38.73;104326.47;7284869;19;154612;-56
2023/02/05 11:44:47;;;;;;;;;;;;;;;20.89;38.68;104332.06;7281594;19;153063;-56
2023/02/05 11:47:21;;;;;;;;;;;;;;;20.94;38.83;104332.25;7286788;19;153395;-57
2023/02/05 11:49:49;;;;;;;;;;;;;;;21.00;38.70;104337.78;7284432;19;155480;-58
2023/02/05 11:52:22;;;;;;;;;;;;;;;21.05;38.65;104342.72;7282380;19;152707;-58
2023/02/05 11:54:50;;;;;;;;;;;;;;;21.09;38.58;104335.56;7292607;19;152690;-58
2023/02/05 11:57:18;;;;;;;;;;;;;;;21.13;38.85;104328.41;7287472;19;154047;-58
2023/02/05 11:59:48;;;;;;;;;;;;;;;21.18;38.63;104328.56;7285052;19;153754;-58
2023/02/05 12:02:18;;;;;;;;;;;;;;;21.23;38.40;104323.13;7287012;19;154018;-58
2023/02/05 12:04:49;;;;;;;;;;;;;;;21.27;38.71;104314.00;7287704;19;154286;-58
2023/02/05 12:07:18;;;;;;;;;;;;;;;21.32;38.71;104316.13;7284368;19;155387;-58
2023/02/05 12:09:47;;;;;;;;;;;;;;;21.36;38.22;104308.94;7284761;19;153937;-58
2023/02/05 12:12:17;;;;;;;;;;;;;;;21.42;38.22;104310.81;7282800;19;154085;-58
2023/02/05 12:14:45;;;;;;;;;;;;;;;21.46;38.30;104305.59;7287051;19;154028;-58
2023/02/05 12:17:16;;;;;;;;;;;;;;;21.50;38.28;104312.47;7292432;19;154123;-58
2023/02/05 12:19:46;;;;;;;;;;;;;;;21.53;38.20;104309.19;7281701;19;153778;-58
2023/02/05 12:22:13;;;;;;;;;;;;;;;21.57;38.38;104307.63;7268725;19;152783;-58
2023/02/05 12:24:40;;;;;;;;;;;;;;;21.60;38.22;104304.34;7254898;19;153379;-58
2023/02/05 12:27:11;;;;;;;;;;;;;;;21.63;38.20;104301.91;7256618;19;153590;-58
2023/02/05 12:29:38;;;;;;;;;;;;;;;21.66;37.89;104315.53;7255890;19;153459;-56
2023/02/05 12:32:08;;;;;;;;;;;;;;;21.42;33.94;104313.63;7257958;19;154833;-58
2023/02/05 12:34:39;;;;;;;;;;;;;;;21.23;32.32;104311.88;7255823;19;154153;-58
2023/02/05 12:37:06;;;;;;;;;;;;;;;21.01;31.84;104318.97;7255614;19;154502;-58
2023/02/05 12:39:34;;;;;;;;;;;;;;;20.81;31.44;104308.75;7266441;19;153033;-56
2023/02/05 12:42:05;;;;;;;;;;;;;;;21.06;32.62;104300.34;7254936;19;154484;-57
2023/02/05 12:44:36;;;;;;;;;;;;;;;21.17;33.60;104299.59;7255651;19;154461;-57